^^

..:: Storico WU ::..




Lo storico viene creato da WUnderground con i dati che la stazione Meteomincio invia al loro server. L' aggiornamento viene fatto ogni 5 minuti circa, tuttavia possono esserci intervalli pił ampi a causa di errori, interruzioni di servizio o problemi nell' invio tramite FTP.


Storico stazione MeteoMincio
Giorno Sommario per Marzo 27, 2022 Unità:  Inglese    Metrico   Entrambi
Giorno Settimana Mese Anno
  Max: Min: Media:
Temperatura: 69.8 °F 39.2 °F 55.4 °F
Dew Point: 42.8 °F 32 °F 38.8 °F
Umidità: 79% 30% 57%
Velocità vento: 9.9mph 0mph 3mph
Raffica: 11.8mph - -
Direzione- - ESE
Pressione: 30.4 in 30.3 in -
Precipitazioni: 0 in    
 
 
Tabulato Dati per Marzo 27, 2022
Ora Temperatura Dew Point Pressione Direzione Velocità vento Raffica Umidità Intensità pioggia (oraria) Info solare Situazione
00:04 50 °F 37.4 °F 30.3 in NE 2.5 mph 3.7 mph 64% 0 in 0.00 W/m2 unknown
00:09 50 °F 37.4 °F 30.3 in NE 3.1 mph 3.7 mph 61% 0 in 0.00 W/m2 unknown
00:14 50 °F 37.4 °F 30.3 in NE 3.1 mph 3.7 mph 60% 0 in 0.00 W/m2 unknown
00:19 50 °F 37.4 °F 30.3 in NE 3.7 mph 3.7 mph 59% 0 in 0.00 W/m2 unknown
00:24 50 °F 37.4 °F 30.3 in NE 3.7 mph 3.7 mph 59% 0 in 0.00 W/m2 unknown
00:29 50 °F 35.6 °F 30.3 in NE 3.1 mph 3.7 mph 59% 0 in 0.00 W/m2 unknown
00:34 50 °F 35.6 °F 30.3 in NE 3.1 mph 3.7 mph 60% 0 in 0.00 W/m2 unknown
00:39 50 °F 35.6 °F 30.3 in NE 2.5 mph 3.7 mph 60% 0 in 0.00 W/m2 unknown
00:44 50 °F 35.6 °F 30.3 in NE 1.9 mph 3.7 mph 61% 0 in 0.00 W/m2 unknown
00:49 48.2 °F 35.6 °F 30.3 in NE 1.9 mph 3.7 mph 63% 0 in 0.00 W/m2 unknown
00:54 48.2 °F 35.6 °F 30.3 in NE 1.9 mph 3.7 mph 63% 0 in 0.00 W/m2 unknown
00:59 48.2 °F 35.6 °F 30.3 in NE 2.5 mph 3.7 mph 61% 0 in 0.00 W/m2 unknown
01:04 48.2 °F 35.6 °F 30.3 in ENE 2.5 mph 3.7 mph 63% 0 in 0.00 W/m2 unknown
01:09 48.2 °F 35.6 °F 30.3 in ENE 1.9 mph 3.7 mph 64% 0 in 0.00 W/m2 unknown
01:19 46.4 °F 35.6 °F 30.3 in NNE 3.1 mph 3.7 mph 66% 0 in 0.00 W/m2 unknown
01:24 46.4 °F 35.6 °F 30.3 in NNE 3.1 mph 3.7 mph 66% 0 in 0.00 W/m2 unknown
01:29 48.2 °F 35.6 °F 30.3 in NE 2.5 mph 3.7 mph 65% 0 in 0.00 W/m2 unknown
01:34 48.2 °F 35.6 °F 30.3 in NE 3.1 mph 3.7 mph 65% 0 in 0.00 W/m2 unknown
01:39 48.2 °F 35.6 °F 30.3 in NE 3.1 mph 3.7 mph 65% 0 in 0.00 W/m2 unknown
01:44 48.2 °F 35.6 °F 30.3 in NE 2.5 mph 3.7 mph 65% 0 in 0.00 W/m2 unknown
01:49 48.2 °F 35.6 °F 30.3 in NE 3.7 mph 3.7 mph 64% 0 in 0.00 W/m2 unknown
01:54 48.2 °F 35.6 °F 30.3 in NE 3.1 mph 3.7 mph 64% 0 in 0.00 W/m2 unknown
01:59 48.2 °F 35.6 °F 30.3 in NE 3.7 mph 3.7 mph 63% 0 in 0.00 W/m2 unknown
03:04 48.2 °F 35.6 °F 30.3 in NE 4.3 mph 5 mph 62% 0 in 0.00 W/m2 unknown
03:09 48.2 °F 35.6 °F 30.3 in NE 4.3 mph 6.2 mph 62% 0 in 0.00 W/m2 unknown
03:14 48.2 °F 35.6 °F 30.3 in NE 5 mph 6.2 mph 61% 0 in 0.00 W/m2 unknown
03:19 48.2 °F 35.6 °F 30.3 in NE 4.3 mph 6.2 mph 61% 0 in 0.00 W/m2 unknown
03:24 48.2 °F 35.6 °F 30.3 in NE 3.7 mph 5 mph 61% 0 in 0.00 W/m2 unknown
03:29 48.2 °F 35.6 °F 30.3 in NE 4.3 mph 5 mph 62% 0 in 0.00 W/m2 unknown
03:34 48.2 °F 35.6 °F 30.3 in NE 3.1 mph 5 mph 63% 0 in 0.00 W/m2 unknown
03:39 48.2 °F 35.6 °F 30.3 in NE 3.1 mph 5 mph 67% 0 in 0.00 W/m2 unknown
03:44 46.4 °F 35.6 °F 30.3 in NE 2.5 mph 3.7 mph 69% 0 in 0.00 W/m2 unknown
03:49 44.6 °F 35.6 °F 30.3 in NE 1.2 mph 3.1 mph 71% 0 in 0.00 W/m2 unknown
03:54 44.6 °F 35.6 °F 30.3 in NE 2.5 mph 3.7 mph 71% 0 in 0.00 W/m2 unknown
03:59 44.6 °F 35.6 °F 30.3 in NNE 2.5 mph 3.7 mph 71% 0 in 0.00 W/m2 unknown
04:04 46.4 °F 35.6 °F 30.3 in NE 2.5 mph 3.7 mph 70% 0 in 0.00 W/m2 unknown
04:09 46.4 °F 35.6 °F 30.3 in NE 1.9 mph 3.7 mph 71% 0 in 0.00 W/m2 unknown
04:14 44.6 °F 35.6 °F 30.3 in NE 2.5 mph 3.7 mph 73% 0 in 0.00 W/m2 unknown
04:19 44.6 °F 35.6 °F 30.3 in NE 2.5 mph 3.7 mph 74% 0 in 0.00 W/m2 unknown
04:24 42.8 °F 35.6 °F 30.3 in ESE 4.3 mph 5 mph 76% 0 in 0.00 W/m2 unknown
04:29 42.8 °F 35.6 °F 30.3 in SE 5 mph 5 mph 77% 0 in 0.00 W/m2 unknown
04:34 42.8 °F 35.6 °F 30.3 in SE 5 mph 5 mph 77% 0 in 0.00 W/m2 unknown
04:39 42.8 °F 35.6 °F 30.3 in East 3.1 mph 5 mph 77% 0 in 0.00 W/m2 unknown
04:44 42.8 °F 35.6 °F 30.3 in ENE 2.5 mph 3.7 mph 78% 0 in 0.00 W/m2 unknown
04:49 42.8 °F 35.6 °F 30.3 in ENE 1.2 mph 3.1 mph 78% 0 in 0.00 W/m2 unknown
04:54 42.8 °F 35.6 °F 30.3 in ENE 1.2 mph 2.5 mph 77% 0 in 0.00 W/m2 unknown
04:59 42.8 °F 35.6 °F 30.3 in ENE 1.2 mph 2.5 mph 76% 0 in 0.00 W/m2 unknown
05:04 42.8 °F 35.6 °F 30.3 in ENE 0.6 mph 1.9 mph 76% 0 in 0.00 W/m2 unknown
05:09 42.8 °F 35.6 °F 30.3 in ENE 0.6 mph 1.2 mph 76% 0 in 0.00 W/m2 unknown
05:14 42.8 °F 35.6 °F 30.3 in Calm   1.2 mph 76% 0 in 0.00 W/m2 unknown
05:19 42.8 °F 35.6 °F 30.3 in ENE 1.2 mph 1.2 mph 76% 0 in 0.00 W/m2 unknown
05:24 42.8 °F 35.6 °F 30.3 in ENE 1.2 mph 1.2 mph 76% 0 in 0.00 W/m2 unknown
05:29 41 °F 35.6 °F 30.3 in ENE 0.6 mph 1.2 mph 76% 0 in 0.00 W/m2 unknown
05:34 41 °F 35.6 °F 30.3 in East 1.9 mph 2.5 mph 76% 0 in 0.00 W/m2 unknown
05:39 41 °F 33.8 °F 30.3 in SE 1.2 mph 2.5 mph 76% 0 in 0.00 W/m2 unknown
05:44 41 °F 33.8 °F 30.3 in SE 0.6 mph 1.2 mph 76% 0 in 0.00 W/m2 unknown
05:49 41 °F 33.8 °F 30.3 in SE 0.6 mph 1.2 mph 75% 0 in 0.00 W/m2 unknown
05:54 41 °F 33.8 °F 30.3 in Calm   1.2 mph 76% 0 in 0.00 W/m2 unknown
05:59 41 °F 33.8 °F 30.3 in SE 1.2 mph 2.5 mph 75% 0 in 0.00 W/m2 unknown
06:04 41 °F 33.8 °F 30.3 in East 1.2 mph 2.5 mph 76% 0 in 0.00 W/m2 unknown
06:09 41 °F 33.8 °F 30.3 in East 1.2 mph 2.5 mph 76% 0 in 0.00 W/m2 unknown
06:14 41 °F 33.8 °F 30.3 in ESE 1.2 mph 2.5 mph 76% 0 in 0.00 W/m2 unknown
06:19 39.2 °F 32 °F 30.3 in SE 1.2 mph 2.5 mph 78% 0 in 0.00 W/m2 unknown
06:24 39.2 °F 32 °F 30.3 in SE 1.2 mph 2.5 mph 78% 0 in 0.00 W/m2 unknown
06:29 39.2 °F 33.8 °F 30.3 in Calm   1.9 mph 79% 0 in 0.00 W/m2 unknown
06:34 39.2 °F 33.8 °F 30.3 in ESE 0.6 mph 1.9 mph 78% 0 in 0.00 W/m2 unknown
06:39 39.2 °F 33.8 °F 30.3 in ESE 1.2 mph 2.5 mph 77% 0 in 0.00 W/m2 unknown
06:44 41 °F 33.8 °F 30.3 in East 1.9 mph 2.5 mph 77% 0 in 0.00 W/m2 unknown
06:49 41 °F 33.8 °F 30.3 in ENE 1.2 mph 2.5 mph 77% 0 in 0.00 W/m2 unknown
06:54 41 °F 33.8 °F 30.3 in ENE 1.2 mph 2.5 mph 77% 0 in 0.00 W/m2 unknown
06:59 41 °F 33.8 °F 30.3 in ENE 1.2 mph 1.9 mph 77% 0 in 0.00 W/m2 unknown
07:04 39.2 °F 33.8 °F 30.4 in Calm   1.2 mph 77% 0 in 5.00 W/m2 unknown
07:09 39.2 °F 33.8 °F 30.4 in Calm     77% 0 in 9.00 W/m2 unknown
07:14 39.2 °F 33.8 °F 30.4 in Calm     78% 0 in 12.00 W/m2 unknown
07:19 39.2 °F 33.8 °F 30.4 in Calm     78% 0 in 18.00 W/m2 unknown
07:24 39.2 °F 33.8 °F 30.4 in NE 1.2 mph 1.9 mph 78% 0 in 25.00 W/m2 unknown
07:29 39.2 °F 33.8 °F 30.4 in NE 1.9 mph 2.5 mph 78% 0 in 32.00 W/m2 unknown
07:34 41 °F 33.8 °F 30.4 in NNE 1.9 mph 2.5 mph 78% 0 in 37.00 W/m2 unknown
07:39 41 °F 33.8 °F 30.4 in NNE 1.9 mph 2.5 mph 77% 0 in 44.00 W/m2 unknown
07:44 41 °F 33.8 °F 30.4 in NE 1.2 mph 2.5 mph 76% 0 in 53.00 W/m2 unknown
07:49 42.8 °F 33.8 °F 30.4 in NE 1.2 mph 2.5 mph 75% 0 in 62.00 W/m2 unknown
07:54 42.8 °F 33.8 °F 30.4 in NE 0.6 mph 1.9 mph 75% 0 in 70.00 W/m2 unknown
07:59 42.8 °F 33.8 °F 30.4 in North 0.6 mph 1.2 mph 75% 0 in 83.00 W/m2 unknown
08:04 42.8 °F 33.8 °F 30.4 in Calm   1.2 mph 75% 0 in 95.00 W/m2 unknown
08:09 42.8 °F 35.6 °F 30.4 in NE 0.6 mph 1.2 mph 74% 0 in 107.00 W/m2 unknown
08:14 44.6 °F 35.6 °F 30.4 in NE 0.6 mph 1.2 mph 74% 0 in 121.00 W/m2 unknown
08:19 44.6 °F 37.4 °F 30.4 in North 0.6 mph 1.9 mph 73% 0 in 137.00 W/m2 unknown
08:24 46.4 °F 37.4 °F 30.4 in NNE 1.9 mph 2.5 mph 74% 0 in 149.00 W/m2 unknown
08:29 48.2 °F 37.4 °F 30.4 in NNE 2.5 mph 3.7 mph 73% 0 in 151.00 W/m2 unknown
08:34 48.2 °F 37.4 °F 30.4 in NE 2.5 mph 3.7 mph 69% 0 in 162.00 W/m2 unknown
08:39 48.2 °F 37.4 °F 30.4 in NE 2.5 mph 3.7 mph 66% 0 in 160.00 W/m2 unknown
08:44 48.2 °F 37.4 °F 30.4 in ENE 1.9 mph 3.7 mph 66% 0 in 165.00 W/m2 unknown
08:49 48.2 °F 39.2 °F 30.4 in ENE 1.9 mph 3.7 mph 72% 0 in 206.00 W/m2 unknown
08:54 48.2 °F 39.2 °F 30.4 in ENE 1.9 mph 3.1 mph 73% 0 in 214.00 W/m2 unknown
08:59 50 °F 41 °F 30.4 in NE 3.1 mph 3.7 mph 72% 0 in 227.00 W/m2 unknown
09:04 50 °F 39.2 °F 30.4 in NE 1.9 mph 3.7 mph 69% 0 in 250.00 W/m2 unknown
09:09 50 °F 41 °F 30.4 in NNE 1.9 mph 3.1 mph 69% 0 in 250.00 W/m2 unknown
09:14 51.8 °F 41 °F 30.4 in NNE 1.9 mph 3.7 mph 69% 0 in 236.00 W/m2 unknown
09:19 51.8 °F 41 °F 30.4 in NNE 3.1 mph 3.7 mph 68% 0 in 260.00 W/m2 unknown
09:24 51.8 °F 41 °F 30.4 in NNE 2.5 mph 3.7 mph 65% 0 in 260.00 W/m2 unknown
09:29 51.8 °F 41 °F 30.4 in NE 2.5 mph 3.7 mph 65% 0 in 278.00 W/m2 unknown
09:34 53.6 °F 41 °F 30.4 in East 4.3 mph 6.8 mph 64% 0 in 311.00 W/m2 unknown
09:39 53.6 °F 41 °F 30.4 in ENE 4.3 mph 6.8 mph 62% 0 in 316.00 W/m2 unknown
09:44 53.6 °F 41 °F 30.4 in East 4.3 mph 6.2 mph 62% 0 in 302.00 W/m2 unknown
09:49 55.4 °F 41 °F 30.4 in ENE 5 mph 6.8 mph 60% 0 in 274.00 W/m2 unknown
09:54 55.4 °F 41 °F 30.4 in ENE 5 mph 6.8 mph 59% 0 in 251.00 W/m2 unknown
09:59 55.4 °F 41 °F 30.4 in ENE 5 mph 6.8 mph 59% 0 in 162.00 W/m2 unknown
10:04 55.4 °F 41 °F 30.4 in ENE 5 mph 6.8 mph 60% 0 in 276.00 W/m2 unknown
10:09 55.4 °F 41 °F 30.4 in ENE 3.7 mph 6.8 mph 60% 0 in 378.00 W/m2 unknown
10:14 55.4 °F 41 °F 30.4 in ENE 2.5 mph 5 mph 59% 0 in 369.00 W/m2 unknown
10:19 57.2 °F 42.8 °F 30.4 in ENE 3.7 mph 5 mph 59% 0 in 413.00 W/m2 unknown
10:24 57.2 °F 42.8 °F 30.4 in ENE 4.3 mph 6.8 mph 58% 0 in 499.00 W/m2 unknown
10:29 59 °F 42.8 °F 30.4 in ENE 5.6 mph 6.8 mph 57% 0 in 508.00 W/m2 unknown
10:34 59 °F 41 °F 30.4 in ENE 6.2 mph 8.1 mph 53% 0 in 517.00 W/m2 unknown
10:39 59 °F 41 °F 30.4 in ENE 5 mph 8.1 mph 52% 0 in 529.00 W/m2 unknown
10:44 60.8 °F 41 °F 30.4 in East 5.6 mph 8.1 mph 51% 0 in 531.00 W/m2 unknown
10:49 60.8 °F 41 °F 30.4 in East 6.8 mph 9.9 mph 48% 0 in 536.00 W/m2 unknown
10:54 60.8 °F 39.2 °F 30.4 in ESE 9.9 mph 11.8 mph 46% 0 in 547.00 W/m2 unknown
10:59 60.8 °F 39.2 °F 30.4 in East 9.3 mph 11.8 mph 46% 0 in 543.00 W/m2 unknown
11:04 60.8 °F 39.2 °F 30.4 in ESE 8.1 mph 11.8 mph 46% 0 in 517.00 W/m2 unknown
11:09 60.8 °F 39.2 °F 30.4 in ESE 8.1 mph 10.6 mph 44% 0 in 575.00 W/m2 unknown
11:14 62.6 °F 37.4 °F 30.4 in East 5.6 mph 9.9 mph 42% 0 in 587.00 W/m2 unknown
11:19 62.6 °F 37.4 °F 30.4 in East 6.8 mph 9.3 mph 41% 0 in 596.00 W/m2 unknown
11:24 62.6 °F 39.2 °F 30.4 in East 6.8 mph 9.3 mph 42% 0 in 606.00 W/m2 unknown
11:29 62.6 °F 39.2 °F 30.4 in ESE 6.8 mph 9.3 mph 42% 0 in 613.00 W/m2 unknown
11:34 62.6 °F 39.2 °F 30.4 in ESE 7.5 mph 10.6 mph 41% 0 in 621.00 W/m2 unknown
11:39 64.4 °F 39.2 °F 30.4 in ENE 5.6 mph 10.6 mph 41% 0 in 603.00 W/m2 unknown
11:44 64.4 °F 39.2 °F 30.4 in East 6.8 mph 9.9 mph 40% 0 in 522.00 W/m2 unknown
11:49 62.6 °F 37.4 °F 30.4 in ENE 6.8 mph 8.1 mph 39% 0 in 571.00 W/m2 unknown
11:54 64.4 °F 39.2 °F 30.4 in East 7.5 mph 9.3 mph 39% 0 in 610.00 W/m2 unknown
11:59 64.4 °F 39.2 °F 30.4 in East 7.5 mph 9.3 mph 39% 0 in 515.00 W/m2 unknown
12:04 64.4 °F 39.2 °F 30.4 in ESE 6.8 mph 8.7 mph 39% 0 in 584.00 W/m2 unknown
12:09 64.4 °F 39.2 °F 30.4 in ESE 6.8 mph 9.3 mph 40% 0 in 573.00 W/m2 unknown
12:14 64.4 °F 39.2 °F 30.4 in SE 6.8 mph 9.3 mph 40% 0 in 563.00 W/m2 unknown
12:19 64.4 °F 41 °F 30.4 in SSE 5 mph 8.7 mph 42% 0 in 610.00 W/m2 unknown
12:24 64.4 °F 39.2 °F 30.4 in SE 5 mph 8.1 mph 41% 0 in 531.00 W/m2 unknown
12:29 64.4 °F 41 °F 30.4 in SSE 3.7 mph 8.1 mph 43% 0 in 367.00 W/m2 unknown
12:34 62.6 °F 41 °F 30.4 in South 3.7 mph 6.2 mph 43% 0 in 445.00 W/m2 unknown
12:39 62.6 °F 41 °F 30.4 in South 5 mph 6.8 mph 45% 0 in 469.00 W/m2 unknown
12:44 62.6 °F 42.8 °F 30.4 in SSE 5 mph 6.8 mph 46% 0 in 457.00 W/m2 unknown
12:49 64.4 °F 42.8 °F 30.4 in SE 3.7 mph 6.8 mph 46% 0 in 506.00 W/m2 unknown
12:54 64.4 °F 41 °F 30.4 in South 5 mph 6.8 mph 45% 0 in 311.00 W/m2 unknown
12:59 62.6 °F 41 °F 30.4 in South 4.3 mph 6.8 mph 46% 0 in 274.00 W/m2 unknown
13:04 62.6 °F 41 °F 30.4 in SSE 4.3 mph 6.2 mph 45% 0 in 309.00 W/m2 unknown
13:09 62.6 °F 39.2 °F 30.4 in SE 5 mph 6.8 mph 42% 0 in 341.00 W/m2 unknown
13:14 64.4 °F 39.2 °F 30.4 in ESE 6.2 mph 8.1 mph 39% 0 in 401.00 W/m2 unknown
13:19 64.4 °F 39.2 °F 30.4 in ESE 6.2 mph 8.1 mph 41% 0 in 401.00 W/m2 unknown
13:24 64.4 °F 39.2 °F 30.4 in SE 4.3 mph 8.1 mph 40% 0 in 559.00 W/m2 unknown
13:29 64.4 °F 41 °F 30.4 in ESE 6.2 mph 8.1 mph 41% 0 in 680.00 W/m2 unknown
13:34 64.4 °F 39.2 °F 30.4 in East 6.2 mph 8.1 mph 40% 0 in 719.00 W/m2 unknown
13:39 66.2 °F 41 °F 30.4 in ESE 5 mph 8.1 mph 41% 0 in 703.00 W/m2 unknown
13:44 66.2 °F 41 °F 30.4 in ESE 5 mph 6.8 mph 40% 0 in 682.00 W/m2 unknown
13:49 66.2 °F 41 °F 30.4 in ESE 4.3 mph 6.8 mph 39% 0 in 689.00 W/m2 unknown
13:54 66.2 °F 39.2 °F 30.4 in East 5 mph 6.8 mph 38% 0 in 712.00 W/m2 unknown
13:59 66.2 °F 39.2 °F 30.4 in ESE 8.1 mph 9.3 mph 37% 0 in 631.00 W/m2 unknown
14:04 66.2 °F 39.2 °F 30.4 in East 8.1 mph 10.6 mph 37% 0 in 631.00 W/m2 unknown
14:09 68 °F 41 °F 30.4 in ESE 6.2 mph 9.9 mph 38% 0 in 649.00 W/m2 unknown
14:14 68 °F 41 °F 30.4 in East 5 mph 8.1 mph 39% 0 in 508.00 W/m2 unknown
14:19 68 °F 41 °F 30.3 in East 4.3 mph 6.8 mph 38% 0 in 494.00 W/m2 unknown
14:24 68 °F 41 °F 30.3 in ENE 5.6 mph 6.8 mph 38% 0 in 461.00 W/m2 unknown
14:29 68 °F 41 °F 30.3 in ESE 5 mph 6.8 mph 38% 0 in 596.00 W/m2 unknown
14:34 68 °F 41 °F 30.3 in SSE 3.1 mph 6.8 mph 39% 0 in 636.00 W/m2 unknown
14:39 68 °F 41 °F 30.3 in East 6.8 mph 9.3 mph 38% 0 in 628.00 W/m2 unknown
14:44 68 °F 41 °F 30.3 in ESE 6.8 mph 9.3 mph 37% 0 in 603.00 W/m2 unknown
14:49 68 °F 41 °F 30.3 in ESE 6.8 mph 8.1 mph 37% 0 in 571.00 W/m2 unknown
14:54 68 °F 41 °F 30.3 in East 5.6 mph 8.1 mph 37% 0 in 483.00 W/m2 unknown
14:59 68 °F 41 °F 30.3 in ENE 6.2 mph 8.1 mph 38% 0 in 464.00 W/m2 unknown
15:04 68 °F 41 °F 30.3 in ESE 5.6 mph 8.1 mph 38% 0 in 427.00 W/m2 unknown
15:09 68 °F 41 °F 30.3 in East 4.3 mph 8.1 mph 39% 0 in 360.00 W/m2 unknown
15:14 68 °F 41 °F 30.3 in NE 3.1 mph 6.8 mph 39% 0 in 336.00 W/m2 unknown
15:19 68 °F 42.8 °F 30.3 in East 3.7 mph 5 mph 39% 0 in 320.00 W/m2 unknown
15:24 68 °F 42.8 °F 30.3 in ENE 5 mph 6.8 mph 40% 0 in 294.00 W/m2 unknown
15:29 68 °F 41 °F 30.3 in East 3.1 mph 6.8 mph 38% 0 in 292.00 W/m2 unknown
15:34 68 °F 41 °F 30.3 in East 3.7 mph 3.7 mph 37% 0 in 281.00 W/m2 unknown
15:39 68 °F 41 °F 30.3 in East 3.1 mph 3.7 mph 36% 0 in 271.00 W/m2 unknown
15:44 68 °F 41 °F 30.3 in ENE 4.3 mph 6.2 mph 36% 0 in 258.00 W/m2 unknown
15:49 68 °F 41 °F 30.3 in ENE 5 mph 6.2 mph 36% 0 in 258.00 W/m2 unknown
15:54 68 °F 39.2 °F 30.3 in East 3.7 mph 6.2 mph 35% 0 in 246.00 W/m2 unknown
15:59 68 °F 39.2 °F 30.3 in East 3.7 mph 6.2 mph 35% 0 in 246.00 W/m2 unknown
16:04 68 °F 39.2 °F 30.3 in East 3.7 mph 6.2 mph 35% 0 in 237.00 W/m2 unknown
16:09 68 °F 37.4 °F 30.3 in East 5.6 mph 8.1 mph 32% 0 in 218.00 W/m2 unknown
16:14 68 °F 35.6 °F 30.3 in ESE 5.6 mph 8.1 mph 30% 0 in 223.00 W/m2 unknown
16:19 68 °F 35.6 °F 30.3 in ESE 5 mph 6.8 mph 30% 0 in 232.00 W/m2 unknown
16:24 68 °F 35.6 °F 30.3 in SE 5 mph 6.8 mph 30% 0 in 239.00 W/m2 unknown
16:29 69.8 °F 37.4 °F 30.3 in SE 3.1 mph 6.8 mph 32% 0 in 241.00 W/m2 unknown
16:34 68 °F 37.4 °F 30.3 in SSE 3.7 mph 6.2 mph 31% 0 in 236.00 W/m2 unknown
16:39 68 °F 39.2 °F 30.3 in SSE 4.3 mph 6.2 mph 33% 0 in 192.00 W/m2 unknown
16:44 68 °F 37.4 °F 30.3 in South 4.3 mph 6.2 mph 32% 0 in 167.00 W/m2 unknown
16:49 68 °F 39.2 °F 30.3 in SSE 3.1 mph 6.2 mph 34% 0 in 153.00 W/m2 unknown
16:54 68 °F 39.2 °F 30.3 in SE 5 mph 6.8 mph 34% 0 in 153.00 W/m2 unknown
16:59 68 °F 39.2 °F 30.3 in SSE 4.3 mph 8.1 mph 35% 0 in 155.00 W/m2 unknown
17:04 68 °F 39.2 °F 30.3 in South 3.1 mph 8.1 mph 35% 0 in 158.00 W/m2 unknown
17:09 68 °F 39.2 °F 30.3 in SSE 3.1 mph 5 mph 35% 0 in 160.00 W/m2 unknown
17:14 68 °F 37.4 °F 30.3 in SE 2.5 mph 5 mph 34% 0 in 162.00 W/m2 unknown
17:19 68 °F 37.4 °F 30.3 in ESE 6.2 mph 8.1 mph 34% 0 in 162.00 W/m2 unknown
17:24 68 °F 37.4 °F 30.3 in ESE 6.2 mph 9.3 mph 34% 0 in 156.00 W/m2 unknown
17:29 68 °F 39.2 °F 30.3 in ESE 3.1 mph 8.7 mph 35% 0 in 142.00 W/m2 unknown
17:34 68 °F 39.2 °F 30.3 in SE 4.3 mph 5 mph 35% 0 in 132.00 W/m2 unknown
17:39 66.2 °F 39.2 °F 30.3 in ESE 3.1 mph 5 mph 36% 0 in 123.00 W/m2 unknown
17:44 66.2 °F 39.2 °F 30.3 in ESE 2.5 mph 3.7 mph 37% 0 in 116.00 W/m2 unknown
17:49 66.2 °F 39.2 °F 30.3 in SE 1.9 mph 3.7 mph 37% 0 in 111.00 W/m2 unknown
17:54 66.2 °F 41 °F 30.3 in SSE 1.9 mph 3.7 mph 38% 0 in 105.00 W/m2 unknown
17:59 66.2 °F 41 °F 30.3 in SSE 2.5 mph 3.7 mph 39% 0 in 102.00 W/m2 unknown
18:04 66.2 °F 41 °F 30.3 in SSE 1.2 mph 3.7 mph 39% 0 in 98.00 W/m2 unknown
18:09 66.2 °F 41 °F 30.3 in SSE 1.2 mph 2.5 mph 40% 0 in 95.00 W/m2 unknown
18:14 66.2 °F 42.8 °F 30.3 in SSE 1.2 mph 2.5 mph 41% 0 in 93.00 W/m2 unknown
18:19 66.2 °F 41 °F 30.3 in SE 1.9 mph 3.7 mph 41% 0 in 90.00 W/m2 unknown
18:24 66.2 °F 41 °F 30.3 in SSE 1.2 mph 3.1 mph 41% 0 in 86.00 W/m2 unknown
18:29 66.2 °F 42.8 °F 30.3 in SSE 0.6 mph 1.9 mph 42% 0 in 83.00 W/m2 unknown
18:34 66.2 °F 42.8 °F 30.3 in SE 1.9 mph 3.7 mph 42% 0 in 77.00 W/m2 unknown
18:39 66.2 °F 42.8 °F 30.3 in SE 2.5 mph 3.7 mph 43% 0 in 72.00 W/m2 unknown
18:44 64.4 °F 42.8 °F 30.3 in SE 1.9 mph 3.7 mph 43% 0 in 67.00 W/m2 unknown
18:49 64.4 °F 42.8 °F 30.3 in SE 1.9 mph 3.7 mph 44% 0 in 62.00 W/m2 unknown
18:54 64.4 °F 42.8 °F 30.3 in SE 1.9 mph 3.7 mph 44% 0 in 53.00 W/m2 unknown
18:59 64.4 °F 42.8 °F 30.3 in SE 1.9 mph 3.7 mph 45% 0 in 46.00 W/m2 unknown
19:04 64.4 °F 42.8 °F 30.3 in SE 1.9 mph 3.7 mph 46% 0 in 39.00 W/m2 unknown
19:09 64.4 °F 42.8 °F 30.3 in SE 1.9 mph 3.7 mph 47% 0 in 32.00 W/m2 unknown
19:14 62.6 °F 42.8 °F 30.3 in SE 2.5 mph 3.1 mph 47% 0 in 25.00 W/m2 unknown
19:19 62.6 °F 42.8 °F 30.3 in SE 2.5 mph 3.7 mph 49% 0 in 19.00 W/m2 unknown
19:24 62.6 °F 42.8 °F 30.3 in SE 2.5 mph 3.7 mph 50% 0 in 14.00 W/m2 unknown
19:29 62.6 °F 42.8 °F 30.3 in SE 1.9 mph 3.7 mph 50% 0 in 11.00 W/m2 unknown
19:34 60.8 °F 42.8 °F 30.3 in SSE 1.2 mph 3.7 mph 50% 0 in 5.00 W/m2 unknown
19:39 60.8 °F 42.8 °F 30.3 in South 1.2 mph 3.1 mph 51% 0 in 0.00 W/m2 unknown
19:44 60.8 °F 42.8 °F 30.3 in SSE 1.9 mph 3.7 mph 52% 0 in 0.00 W/m2 unknown
19:49 60.8 °F 42.8 °F 30.3 in SSE 1.2 mph 3.1 mph 53% 0 in 0.00 W/m2 unknown
19:54 59 °F 42.8 °F 30.3 in SE 1.9 mph 3.7 mph 53% 0 in 0.00 W/m2 unknown
19:59 59 °F 42.8 °F 30.3 in SE 1.9 mph 3.7 mph 53% 0 in 0.00 W/m2 unknown
20:04 59 °F 42.8 °F 30.3 in SSE 1.2 mph 3.7 mph 54% 0 in 0.00 W/m2 unknown
20:09 59 °F 42.8 °F 30.3 in SSE 1.2 mph 3.1 mph 55% 0 in 0.00 W/m2 unknown
20:14 59 °F 42.8 °F 30.3 in SSE 1.2 mph 1.9 mph 56% 0 in 0.00 W/m2 unknown
20:19 59 °F 42.8 °F 30.3 in SSE 0.6 mph 1.2 mph 56% 0 in 0.00 W/m2 unknown
20:24 59 °F 42.8 °F 30.3 in WSW 1.9 mph 3.1 mph 56% 0 in 0.00 W/m2 unknown
20:29 59 °F 42.8 °F 30.3 in WNW 3.7 mph 3.7 mph 56% 0 in 0.00 W/m2 unknown
20:34 57.2 °F 41 °F 30.3 in NW 3.7 mph 3.7 mph 55% 0 in 0.00 W/m2 unknown
20:39 57.2 °F 41 °F 30.3 in NW 1.9 mph 3.7 mph 55% 0 in 0.00 W/m2 unknown
20:44 57.2 °F 42.8 °F 30.3 in NW 1.2 mph 3.1 mph 57% 0 in 0.00 W/m2 unknown
20:49 57.2 °F 42.8 °F 30.3 in NW 1.2 mph 2.5 mph 57% 0 in 0.00 W/m2 unknown
20:54 57.2 °F 42.8 °F 30.3 in NW 1.2 mph 1.2 mph 59% 0 in 0.00 W/m2 unknown
20:59 55.4 °F 42.8 °F 30.3 in NW 1.2 mph 1.2 mph 60% 0 in 0.00 W/m2 unknown
21:04 55.4 °F 42.8 °F 30.3 in NW 1.9 mph 2.5 mph 60% 0 in 0.00 W/m2 unknown
21:09 55.4 °F 42.8 °F 30.3 in NW 1.2 mph 2.5 mph 60% 0 in 0.00 W/m2 unknown
21:14 55.4 °F 42.8 °F 30.3 in NW 1.2 mph 2.5 mph 61% 0 in 0.00 W/m2 unknown
21:19 55.4 °F 42.8 °F 30.3 in NW 1.2 mph 2.5 mph 62% 0 in 0.00 W/m2 unknown
21:24 55.4 °F 42.8 °F 30.3 in Calm   1.9 mph 63% 0 in 0.00 W/m2 unknown
21:29 53.6 °F 42.8 °F 30.3 in NW 0.6 mph 1.9 mph 64% 0 in 0.00 W/m2 unknown
21:34 53.6 °F 42.8 °F 30.3 in NW 1.2 mph 2.5 mph 65% 0 in 0.00 W/m2 unknown
21:39 53.6 °F 42.8 °F 30.3 in NNW 1.9 mph 2.5 mph 65% 0 in 0.00 W/m2 unknown
21:44 53.6 °F 42.8 °F 30.3 in North 1.9 mph 2.5 mph 65% 0 in 0.00 W/m2 unknown
21:49 53.6 °F 42.8 °F 30.4 in North 1.2 mph 2.5 mph 65% 0 in 0.00 W/m2 unknown
21:54 53.6 °F 41 °F 30.4 in NNE 1.9 mph 2.5 mph 65% 0 in 0.00 W/m2 unknown
21:59 53.6 °F 41 °F 30.4 in ENE 1.9 mph 3.7 mph 66% 0 in 0.00 W/m2 unknown
22:04 51.8 °F 42.8 °F 30.4 in East 3.1 mph 3.7 mph 68% 0 in 0.00 W/m2 unknown
22:09 51.8 °F 42.8 °F 30.4 in East 3.7 mph 5 mph 69% 0 in 0.00 W/m2 unknown
22:14 51.8 °F 42.8 °F 30.4 in East 4.3 mph 5 mph 70% 0 in 0.00 W/m2 unknown
22:19 51.8 °F 42.8 °F 30.4 in East 3.1 mph 5 mph 72% 0 in 0.00 W/m2 unknown
22:24 51.8 °F 42.8 °F 30.4 in East 2.5 mph 5 mph 72% 0 in 0.00 W/m2 unknown
22:29 51.8 °F 42.8 °F 30.4 in East 2.5 mph 3.7 mph 73% 0 in 0.00 W/m2 unknown
22:34 51.8 °F 42.8 °F 30.4 in East 2.5 mph 3.7 mph 71% 0 in 0.00 W/m2 unknown
22:39 51.8 °F 41 °F 30.4 in East 2.5 mph 3.7 mph 68% 0 in 0.00 W/m2 unknown
22:44 51.8 °F 41 °F 30.4 in East 2.5 mph 3.7 mph 68% 0 in 0.00 W/m2 unknown
22:49 51.8 °F 41 °F 30.4 in East 1.2 mph 3.1 mph 69% 0 in 0.00 W/m2 unknown
22:54 51.8 °F 41 °F 30.4 in East 1.2 mph 2.5 mph 69% 0 in 0.00 W/m2 unknown
22:59 51.8 °F 41 °F 30.4 in East 1.2 mph 2.5 mph 70% 0 in 0.00 W/m2 unknown
23:04 50 °F 41 °F 30.4 in East 1.2 mph 1.2 mph 71% 0 in 0.00 W/m2 unknown
23:09 50 °F 41 °F 30.4 in East 1.2 mph 2.5 mph 71% 0 in 0.00 W/m2 unknown
23:14 50 °F 41 °F 30.4 in East 1.2 mph 2.5 mph 72% 0 in 0.00 W/m2 unknown
23:19 50 °F 41 °F 30.4 in Calm   1.9 mph 72% 0 in 0.00 W/m2 unknown
23:24 50 °F 41 °F 30.4 in Calm   1.2 mph 71% 0 in 0.00 W/m2 unknown
23:29 48.2 °F 39.2 °F 30.4 in East 0.6 mph 1.2 mph 71% 0 in 0.00 W/m2 unknown
23:34 48.2 °F 39.2 °F 30.4 in East 0.6 mph 1.2 mph 71% 0 in 0.00 W/m2 unknown
23:39 48.2 °F 39.2 °F 30.4 in Calm   1.2 mph 71% 0 in 0.00 W/m2 unknown
23:44 48.2 °F 39.2 °F 30.4 in Calm   1.2 mph 71% 0 in 0.00 W/m2 unknown
23:49 48.2 °F 39.2 °F 30.4 in Calm     71% 0 in 0.00 W/m2 unknown
23:54 48.2 °F 39.2 °F 30.4 in East 0.6 mph 1.2 mph 71% 0 in 0.00 W/m2 unknown
23:59 48.2 °F 39.2 °F 30.4 in East 0.6 mph 1.2 mph 73% 0 in 0.00 W/m2 unknown
Stazione Meteorologica MeteoMincio Rivalta s/M (MN)
Con i complimenti di Weather Underground - 4 mb



METEO PILLOLE
Il ghiacciaio più meridionale d'Europa
Ghiacciaio del Calderone, Teramo, Abruzzo, Italia:
Definito "fossile" perchè la parte di ghiaccio vivo è quasi totalmente ricoperta di ghiaia, comunque ospita nevai perenni. Si estende tra circa 2650 m e circa 2850 m di quota sotto la vetta del Corno Grande, cima più alta dell'Appennino (2912 m), gruppo montuoso del Gran Sasso d'Italia.
Share

Non seguire questo link o sarai bannato dal sito!